createdAt,value
2023-01-02T00:00:03.574Z,938.23
2023-01-02T00:05:03.387Z,938.15
2023-01-02T00:10:03.224Z,938.21
2023-01-02T00:15:03.341Z,938.23
2023-01-02T00:20:03.222Z,938.31
2023-01-02T00:25:03.301Z,938.45
2023-01-02T00:30:03.419Z,938.62
2023-01-02T00:35:03.129Z,938.56
2023-01-02T00:40:03.268Z,938.56
2023-01-02T00:45:03.164Z,938.58
2023-01-02T00:50:03.279Z,938.76
2023-01-02T00:55:03.203Z,938.92
2023-01-02T01:00:03.253Z,939.15
2023-01-02T01:05:03.221Z,939.25
2023-01-02T01:10:03.253Z,939.33
2023-01-02T01:15:08.333Z,939.43
2023-01-02T01:20:04.824Z,939.49
2023-01-02T01:25:03.301Z,939.74
2023-01-02T01:30:03.396Z,940.02
2023-01-02T01:35:36.311Z,940.11
2023-01-02T01:40:03.213Z,940.13
2023-01-02T01:45:03.204Z,940.09
2023-01-02T01:50:05.734Z,940.11
2023-01-02T01:55:03.189Z,940.11
2023-01-02T02:00:03.315Z,940.13
2023-01-02T02:05:03.112Z,940.06
2023-01-02T02:10:03.235Z,939.84
2023-01-02T02:15:03.188Z,939.78
2023-01-02T02:20:03.219Z,939.78
2023-01-02T02:25:03.186Z,939.74
2023-01-02T02:30:03.299Z,939.72
2023-01-02T02:35:03.143Z,939.70
2023-01-02T02:40:03.323Z,939.54
2023-01-02T02:45:03.123Z,939.49
2023-01-02T02:50:03.326Z,939.47
2023-01-02T02:55:03.168Z,939.45
2023-01-02T03:00:03.330Z,939.49
2023-01-02T03:05:03.191Z,939.47
2023-01-02T03:10:03.339Z,939.54
2023-01-02T03:15:03.150Z,939.66
2023-01-02T03:20:03.299Z,939.66
2023-01-02T03:25:03.115Z,939.68
2023-01-02T03:30:03.217Z,939.70
2023-01-02T03:35:03.211Z,939.68
2023-01-02T03:40:03.517Z,939.62
2023-01-02T03:45:03.189Z,939.51
2023-01-02T03:50:03.244Z,939.41
2023-01-02T03:55:03.251Z,939.27
2023-01-02T04:00:03.231Z,939.19
2023-01-02T04:05:03.262Z,939.11
2023-01-02T04:10:03.957Z,939.04
2023-01-02T04:15:03.201Z,939.11
2023-01-02T04:20:03.259Z,939.13
2023-01-02T04:25:03.117Z,939.19
2023-01-02T04:30:08.252Z,939.29
2023-01-02T04:35:03.130Z,939.19
2023-01-02T04:40:03.287Z,939.21
2023-01-02T04:45:03.254Z,939.25
2023-01-02T04:50:03.292Z,939.17
2023-01-02T04:55:03.058Z,939.13
2023-01-02T05:00:03.295Z,939.09
2023-01-02T05:05:03.224Z,939.07
2023-01-02T05:10:03.301Z,939.13
2023-01-02T05:15:03.325Z,939.25
2023-01-02T05:20:04.203Z,939.21
2023-01-02T05:25:03.285Z,939.04
2023-01-02T05:30:03.318Z,938.92
2023-01-02T05:35:03.197Z,938.88
2023-01-02T05:40:03.271Z,938.84
2023-01-02T05:45:14.996Z,938.76
2023-01-02T05:50:03.418Z,938.58
2023-01-02T05:55:22.333Z,938.51
2023-01-02T06:00:03.222Z,938.33
2023-01-02T06:05:19.602Z,938.19
2023-01-02T06:10:03.175Z,938.27
2023-01-02T06:15:35.506Z,938.37
2023-01-02T06:20:03.313Z,938.47
2023-01-02T06:25:03.137Z,938.52
2023-01-02T06:30:03.271Z,938.56
2023-01-02T06:35:03.142Z,938.56
2023-01-02T06:40:03.261Z,938.51
2023-01-02T06:45:03.127Z,938.27
2023-01-02T06:50:04.359Z,938.19
2023-01-02T06:56:08.167Z,938.17
2023-01-02T07:00:03.265Z,938.15
2023-01-02T07:05:03.194Z,938.21
2023-01-02T07:10:03.224Z,938.31
2023-01-02T07:15:03.084Z,938.29
2023-01-02T07:20:10.864Z,938.27
2023-01-02T07:25:03.204Z,938.21
2023-01-02T07:30:03.211Z,938.25
2023-01-02T07:35:03.242Z,938.35
2023-01-02T07:40:03.221Z,938.51
2023-01-02T07:45:03.107Z,938.56
2023-01-02T07:50:03.211Z,938.68
2023-01-02T07:55:03.167Z,938.80
2023-01-02T08:00:03.163Z,938.84
2023-01-02T08:05:03.156Z,938.82
2023-01-02T08:10:03.403Z,938.74
2023-01-02T08:15:03.157Z,938.60
2023-01-02T08:20:07.443Z,938.68
2023-01-02T08:25:03.169Z,938.74
2023-01-02T08:30:03.164Z,938.60
2023-01-02T08:35:03.094Z,938.68
2023-01-02T08:40:03.217Z,938.98
2023-01-02T08:45:03.123Z,939.56
2023-01-02T08:50:03.128Z,940.06
2023-01-02T08:55:03.219Z,940.09
2023-01-02T09:00:03.500Z,940.06
2023-01-02T09:05:03.182Z,940.06
2023-01-02T09:10:03.244Z,940.47
2023-01-02T09:15:03.195Z,941.78
2023-01-02T09:20:03.416Z,942.47
2023-01-02T09:25:03.256Z,942.45
2023-01-02T09:40:03.331Z,941.25
2023-01-02T10:05:13.945Z,941.96
2023-01-02T10:20:03.210Z,941.57
2023-01-02T10:25:03.174Z,941.61
2023-01-02T10:30:03.318Z,941.68
2023-01-02T10:35:03.331Z,941.61
2023-01-02T10:40:03.185Z,941.61
2023-01-02T10:45:03.136Z,941.66
2023-01-02T10:50:03.330Z,941.61
2023-01-02T10:55:03.072Z,941.57
2023-01-02T11:00:03.217Z,941.59
2023-01-02T11:05:03.163Z,941.47
2023-01-02T11:10:03.216Z,941.37
2023-01-02T11:15:03.182Z,941.33
2023-01-02T11:20:03.233Z,941.29
2023-01-02T11:25:03.144Z,941.23
2023-01-02T11:30:03.310Z,941.19
2023-01-02T11:35:03.167Z,941.17
2023-01-02T11:40:03.411Z,941.17
2023-01-02T11:45:03.136Z,941.08
2023-01-02T11:50:03.323Z,941.23
2023-01-02T11:55:08.143Z,941.29
2023-01-02T12:00:03.243Z,941.33
2023-01-02T12:05:03.085Z,941.29
2023-01-02T12:10:03.296Z,941.21
2023-01-02T12:15:03.130Z,941.25
2023-01-02T12:20:05.555Z,941.29
2023-01-02T12:25:03.269Z,941.25
2023-01-02T12:30:03.301Z,941.17
2023-01-02T12:35:03.304Z,941.13
2023-01-02T12:40:03.334Z,941.15
2023-01-02T12:45:03.204Z,941.13
2023-01-02T12:50:03.235Z,940.92
2023-01-02T12:55:03.210Z,940.82
2023-01-02T13:00:03.235Z,940.76
2023-01-02T13:05:03.199Z,940.55
2023-01-02T13:10:03.235Z,940.35
2023-01-02T13:15:03.313Z,940.49
2023-01-02T13:20:03.263Z,940.55
2023-01-02T13:25:03.313Z,940.55
2023-01-02T13:30:03.351Z,940.66
2023-01-02T13:35:03.236Z,940.74
2023-01-02T13:40:03.229Z,940.84
2023-01-02T13:45:03.200Z,941.13
2023-01-02T13:50:04.440Z,941.39
2023-01-02T13:55:03.184Z,941.41
2023-01-02T14:00:03.291Z,941.41
2023-01-02T14:05:03.108Z,941.47
2023-01-02T14:10:03.297Z,941.45
2023-01-02T14:15:03.205Z,941.31
2023-01-02T14:20:03.563Z,941.35
2023-01-02T14:25:03.156Z,941.33
2023-01-02T14:30:03.288Z,941.31
2023-01-02T14:35:03.123Z,941.25
2023-01-02T14:40:03.304Z,941.27
2023-01-02T14:45:03.120Z,941.35
2023-01-02T14:50:03.290Z,941.33
2023-01-02T14:55:03.168Z,941.27
2023-01-02T15:00:03.171Z,941.11
2023-01-02T15:05:03.168Z,940.92
2023-01-02T15:10:03.377Z,940.84
2023-01-02T15:15:03.133Z,940.68
2023-01-02T15:20:03.408Z,940.51
2023-01-02T15:25:03.131Z,940.35
2023-01-02T15:30:08.521Z,940.23
2023-01-02T15:35:03.174Z,939.98
2023-01-02T15:40:03.305Z,939.74
2023-01-02T15:45:03.161Z,939.58
2023-01-02T15:50:03.299Z,939.51
2023-01-02T15:55:03.364Z,939.51
2023-01-02T16:00:03.359Z,939.39
2023-01-02T16:05:03.183Z,939.25
2023-01-02T16:10:03.206Z,939.17
2023-01-02T16:15:03.186Z,939.11
2023-01-02T16:20:03.226Z,939.11
2023-01-02T16:25:03.199Z,939.04
2023-01-02T16:30:03.311Z,938.98
2023-01-02T16:35:03.209Z,939.15
2023-01-02T16:40:03.320Z,939.13
2023-01-02T16:45:03.245Z,939.15
2023-01-02T16:50:03.240Z,939.13
2023-01-02T16:55:03.130Z,939.00
2023-01-02T17:00:03.474Z,938.96
2023-01-02T17:05:03.172Z,938.78
2023-01-02T17:10:03.319Z,938.58
2023-01-02T17:15:03.121Z,938.47
2023-01-02T17:20:03.245Z,938.49
2023-01-02T17:25:03.160Z,938.45
2023-01-02T17:30:03.358Z,938.29
2023-01-02T17:35:03.167Z,938.35
2023-01-02T17:40:03.381Z,938.25
2023-01-02T17:45:04.219Z,938.08
2023-01-02T17:50:03.420Z,938.04
2023-01-02T17:55:03.113Z,937.88
2023-01-02T18:00:03.306Z,937.80
2023-01-02T18:05:03.154Z,937.74
2023-01-02T18:10:08.417Z,937.53
2023-01-02T18:15:03.170Z,937.41
2023-01-02T18:20:03.258Z,937.35
2023-01-02T18:25:03.136Z,937.29
2023-01-02T18:30:03.265Z,937.11
2023-01-02T18:35:16.313Z,937.00
2023-01-02T18:40:03.241Z,936.86
2023-01-02T18:45:03.151Z,936.78
2023-01-02T18:50:03.285Z,936.70
2023-01-02T18:55:03.160Z,936.64
2023-01-02T19:00:03.296Z,936.74
2023-01-02T19:05:03.206Z,936.74
2023-01-02T19:10:03.433Z,936.68
2023-01-02T19:15:03.164Z,936.51
2023-01-02T19:20:03.269Z,936.37
2023-01-02T19:25:05.770Z,936.29
2023-01-02T19:30:03.374Z,936.27
2023-01-02T19:35:03.194Z,936.31
2023-01-02T19:40:03.299Z,936.29
2023-01-02T19:45:03.193Z,936.29
2023-01-02T19:50:03.283Z,936.27
2023-01-02T19:55:03.122Z,936.17
2023-01-02T20:00:03.275Z,936.15
2023-01-02T20:05:03.424Z,936.15
2023-01-02T20:10:03.333Z,936.11
2023-01-02T20:15:03.214Z,936.07
2023-01-02T20:20:03.462Z,936.05
2023-01-02T20:25:03.093Z,936.19
2023-01-02T20:30:03.650Z,936.21
2023-01-02T20:35:03.205Z,936.25
2023-01-02T20:40:03.382Z,936.27
2023-01-02T20:45:03.145Z,936.29
2023-01-02T20:50:03.349Z,936.35
2023-01-02T20:55:03.133Z,936.37
2023-01-02T21:00:03.304Z,936.41
2023-01-02T21:05:03.169Z,936.56
2023-01-02T21:10:03.438Z,936.66
2023-01-02T21:15:03.335Z,936.74
2023-01-02T21:20:03.232Z,936.72
2023-01-02T21:25:03.182Z,936.80
2023-01-02T21:30:03.254Z,936.82
2023-01-02T21:35:08.161Z,936.76
2023-01-02T21:40:03.191Z,936.72
2023-01-02T21:45:04.283Z,936.78
2023-01-02T21:50:03.248Z,936.78
2023-01-02T21:55:03.141Z,936.88
2023-01-02T22:00:03.306Z,937.02
2023-01-02T22:05:03.131Z,936.98
2023-01-02T22:10:03.367Z,936.90
2023-01-02T22:15:03.143Z,937.02
2023-01-02T22:20:03.299Z,937.02
2023-01-02T22:25:03.162Z,937.11
2023-01-02T22:30:21.884Z,937.11
2023-01-02T22:35:03.220Z,937.15
2023-01-02T22:40:03.338Z,937.19
2023-01-02T22:45:03.223Z,937.27
2023-01-02T22:50:06.268Z,937.31
2023-01-02T22:55:03.162Z,937.39
2023-01-02T23:00:03.209Z,937.41
2023-01-02T23:05:03.224Z,937.47
2023-01-02T23:10:03.274Z,937.53
2023-01-02T23:15:03.157Z,937.55
2023-01-02T23:20:03.289Z,937.55
2023-01-02T23:25:03.217Z,937.53
2023-01-02T23:30:03.303Z,937.49
2023-01-02T23:35:04.263Z,937.45
2023-01-02T23:40:03.376Z,937.47
2023-01-02T23:45:03.241Z,937.47
2023-01-02T23:50:03.309Z,937.43
2023-01-02T23:55:03.273Z,937.43
